createdAt,value
2019-03-21T00:01:30.073Z,93.50
2019-03-21T00:04:04.724Z,93.40
2019-03-21T00:06:37.926Z,93.30
2019-03-21T00:09:12.691Z,93.20
2019-03-21T00:11:47.490Z,93.10
2019-03-21T00:14:22.311Z,92.60
2019-03-21T00:16:54.873Z,92.70
2019-03-21T00:19:27.369Z,92.80
2019-03-21T00:21:59.794Z,92.70
2019-03-21T00:24:32.404Z,92.50
2019-03-21T00:27:04.964Z,92.50
2019-03-21T00:29:37.477Z,92.50
2019-03-21T00:32:10.741Z,92.50
2019-03-21T00:34:43.235Z,92.50
2019-03-21T00:37:15.717Z,92.50
2019-03-21T00:39:48.393Z,92.60
2019-03-21T00:42:21.084Z,92.40
2019-03-21T00:44:53.803Z,92.40
2019-03-21T00:47:26.483Z,92.00
2019-03-21T00:49:59.395Z,92.00
2019-03-21T00:52:31.831Z,91.80
2019-03-21T00:55:04.028Z,91.60
2019-03-21T00:57:36.391Z,91.40
2019-03-21T01:00:11.067Z,91.30
2019-03-21T01:02:43.642Z,91.30
2019-03-21T01:05:16.618Z,90.90
2019-03-21T01:07:49.570Z,90.90
2019-03-21T01:10:24.167Z,90.30
2019-03-21T01:12:56.648Z,90.50
2019-03-21T01:15:29.193Z,90.40
2019-03-21T01:18:02.786Z,90.20
2019-03-21T01:20:35.291Z,90.10
2019-03-21T01:23:07.941Z,89.90
2019-03-21T01:25:43.066Z,89.90
2019-03-21T01:28:15.703Z,89.20
2019-03-21T01:30:48.069Z,88.70
2019-03-21T01:33:20.814Z,88.10
2019-03-21T01:35:53.390Z,87.50
2019-03-21T01:38:26.056Z,88.40
2019-03-21T01:41:00.531Z,87.50
2019-03-21T01:43:33.125Z,87.30
2019-03-21T01:46:07.872Z,85.90
2019-03-21T01:48:40.524Z,85.30
2019-03-21T01:51:13.238Z,85.30
2019-03-21T01:53:45.952Z,85.50
2019-03-21T01:56:18.279Z,84.00
2019-03-21T01:58:51.243Z,83.80
2019-03-21T02:01:23.918Z,82.90
2019-03-21T02:03:57.555Z,83.30
2019-03-21T02:06:29.999Z,82.40
2019-03-21T02:09:02.266Z,82.40
2019-03-21T02:11:34.810Z,82.00
2019-03-21T02:14:07.523Z,81.30
2019-03-21T02:16:40.316Z,81.00
2019-03-21T02:19:12.710Z,80.70
2019-03-21T02:21:45.146Z,80.00
2019-03-21T02:24:17.569Z,78.50
2019-03-21T02:26:50.115Z,79.50
2019-03-21T02:29:22.594Z,78.90
2019-03-21T02:31:55.369Z,79.30
2019-03-21T02:34:29.104Z,77.80
2019-03-21T02:37:01.550Z,78.30
2019-03-21T02:39:34.061Z,75.90
2019-03-21T02:42:06.407Z,76.40
2019-03-21T02:44:39.091Z,75.90
2019-03-21T02:47:11.542Z,73.90
2019-03-21T02:49:44.162Z,73.30
2019-03-21T02:52:16.665Z,73.00
2019-03-21T02:54:49.209Z,72.80
2019-03-21T02:57:21.920Z,70.80
2019-03-21T02:59:54.338Z,71.00
2019-03-21T03:02:26.947Z,71.70
2019-03-21T03:05:00.949Z,70.90
2019-03-21T03:07:33.659Z,70.30
2019-03-21T03:10:09.070Z,69.60
2019-03-21T03:12:41.759Z,69.60
2019-03-21T03:15:22.820Z,69.90
2019-03-21T03:17:50.542Z,67.90
2019-03-21T03:20:22.991Z,68.20
2019-03-21T03:22:55.600Z,68.00
2019-03-21T03:25:28.426Z,68.00
2019-03-21T03:28:03.800Z,66.40
2019-03-21T03:30:36.550Z,66.50
2019-03-21T03:33:09.005Z,65.30
2019-03-21T03:35:41.816Z,65.70
2019-03-21T03:38:14.244Z,66.00
2019-03-21T03:40:49.053Z,65.60
2019-03-21T03:43:21.406Z,64.00
2019-03-21T03:45:54.069Z,64.00
2019-03-21T03:48:27.879Z,64.70
2019-03-21T03:51:00.070Z,64.20
2019-03-21T03:53:33.247Z,64.60
2019-03-21T03:56:05.966Z,63.70
2019-03-21T03:58:42.294Z,62.70
2019-03-21T04:01:15.344Z,62.00
2019-03-21T04:03:48.632Z,61.10
2019-03-21T04:06:21.447Z,61.00
2019-03-21T04:08:53.768Z,62.50
2019-03-21T04:11:26.214Z,61.70
2019-03-21T04:13:58.680Z,61.60
2019-03-21T04:16:31.054Z,61.20
2019-03-21T04:19:03.240Z,60.70
2019-03-21T04:21:35.849Z,59.10
2019-03-21T04:24:08.294Z,59.00
2019-03-21T04:26:40.662Z,57.50
2019-03-21T04:29:31.918Z,57.50
2019-03-21T04:32:04.282Z,58.40
2019-03-21T04:34:36.679Z,56.20
2019-03-21T04:37:09.124Z,58.10
2019-03-21T04:39:41.409Z,55.90
2019-03-21T04:42:14.545Z,55.50
2019-03-21T04:44:47.758Z,54.80
2019-03-21T04:47:20.361Z,55.80
2019-03-21T04:49:52.972Z,55.00
2019-03-21T04:52:26.066Z,55.00
2019-03-21T04:54:58.923Z,53.00
2019-03-21T04:57:31.424Z,53.30
2019-03-21T05:00:03.752Z,52.20
2019-03-21T05:02:36.502Z,53.20
2019-03-21T05:05:11.110Z,52.40
2019-03-21T05:07:43.777Z,51.20
2019-03-21T05:10:18.114Z,48.80
2019-03-21T05:12:50.800Z,48.80
2019-03-21T05:15:25.655Z,49.30
2019-03-21T05:18:00.791Z,47.80
2019-03-21T05:20:33.287Z,46.90
2019-03-21T05:23:05.842Z,47.60
2019-03-21T05:25:38.712Z,47.70
2019-03-21T05:28:11.307Z,47.90
2019-03-21T05:30:46.286Z,46.50
2019-03-21T05:33:19.099Z,46.90
2019-03-21T05:35:51.301Z,46.00
2019-03-21T05:38:25.661Z,46.20
2019-03-21T05:40:58.016Z,46.00
2019-03-21T05:43:32.975Z,45.50
2019-03-21T05:46:05.485Z,45.50
2019-03-21T05:48:38.019Z,46.10
2019-03-21T05:51:10.785Z,44.50
2019-03-21T05:53:42.989Z,42.60
2019-03-21T05:56:15.583Z,44.80
2019-03-21T05:58:47.811Z,43.20
2019-03-21T06:01:20.054Z,42.20
2019-03-21T06:03:54.345Z,41.70
2019-03-21T06:06:29.323Z,41.80
2019-03-21T06:09:01.703Z,42.30
2019-03-21T06:11:34.942Z,40.90
2019-03-21T06:14:07.297Z,39.30
2019-03-21T06:16:39.820Z,40.50
2019-03-21T06:19:14.504Z,40.40
2019-03-21T06:21:49.140Z,41.00
2019-03-21T06:24:23.839Z,40.60
2019-03-21T06:26:58.423Z,42.10
2019-03-21T06:29:30.675Z,41.20
2019-03-21T06:32:03.008Z,40.90
2019-03-21T06:34:35.729Z,39.90
2019-03-21T06:37:08.220Z,44.10
2019-03-21T06:39:40.622Z,44.80
2019-03-21T06:42:13.414Z,44.90
2019-03-21T06:44:45.943Z,45.90
2019-03-21T06:47:18.491Z,44.60
2019-03-21T06:49:50.942Z,45.00
2019-03-21T06:52:23.354Z,45.30
2019-03-21T06:54:59.573Z,45.80
2019-03-21T06:57:30.651Z,44.00
2019-03-21T07:00:03.592Z,43.20
2019-03-21T07:02:36.328Z,42.70
2019-03-21T07:05:09.796Z,43.20
2019-03-21T07:07:42.372Z,42.20
2019-03-21T07:10:14.866Z,39.70
2019-03-21T07:12:47.351Z,42.10
2019-03-21T07:15:20.312Z,42.60
2019-03-21T07:17:52.780Z,40.90
2019-03-21T07:20:25.727Z,38.80
2019-03-21T07:22:57.959Z,37.10
2019-03-21T07:25:30.525Z,37.20
2019-03-21T07:28:03.809Z,36.90
2019-03-21T07:30:36.415Z,37.20
2019-03-21T07:33:08.677Z,37.20
2019-03-21T07:35:41.258Z,38.50
2019-03-21T07:38:15.045Z,39.10
2019-03-21T07:40:47.551Z,38.00
2019-03-21T07:43:22.207Z,37.20
2019-03-21T07:45:54.471Z,37.00
2019-03-21T07:48:26.947Z,37.50
2019-03-21T07:50:59.874Z,36.60
2019-03-21T07:53:32.652Z,37.70
2019-03-21T07:56:17.849Z,37.40
2019-03-21T07:58:50.402Z,37.30
2019-03-21T08:01:23.223Z,38.90
2019-03-21T08:03:55.689Z,37.20
2019-03-21T08:06:28.211Z,36.60
2019-03-21T08:09:00.361Z,36.10
2019-03-21T08:11:33.909Z,36.30
2019-03-21T08:14:06.338Z,36.60
2019-03-21T08:16:38.815Z,35.90
2019-03-21T08:19:11.193Z,36.20
2019-03-21T08:21:43.931Z,36.70
2019-03-21T08:24:16.262Z,37.00
2019-03-21T08:26:48.928Z,36.20
2019-03-21T08:29:21.357Z,36.60
2019-03-21T08:31:54.300Z,36.60
2019-03-21T08:34:26.699Z,36.60
2019-03-21T08:36:59.126Z,36.10
2019-03-21T08:39:31.568Z,37.10
2019-03-21T08:42:03.996Z,36.40
2019-03-21T08:44:55.327Z,35.80
2019-03-21T08:47:28.055Z,35.90
2019-03-21T08:50:00.336Z,36.90
2019-03-21T08:52:32.690Z,36.80
2019-03-21T08:55:06.944Z,36.10
2019-03-21T08:57:40.886Z,36.50
2019-03-21T09:00:16.572Z,36.30
2019-03-21T09:02:49.136Z,36.90
2019-03-21T09:05:21.642Z,37.40
2019-03-21T09:07:54.044Z,36.10
2019-03-21T09:10:26.293Z,35.80
2019-03-21T09:12:59.164Z,36.30
2019-03-21T09:15:32.042Z,36.30
2019-03-21T09:18:04.369Z,36.10
2019-03-21T09:20:37.892Z,36.30
2019-03-21T09:23:10.378Z,36.80
2019-03-21T09:25:42.706Z,37.40
2019-03-21T09:28:14.903Z,37.20
2019-03-21T09:30:47.286Z,37.80
2019-03-21T09:33:19.928Z,37.80
2019-03-21T09:35:52.307Z,38.10
2019-03-21T09:38:24.976Z,37.60
2019-03-21T09:40:57.298Z,37.70
2019-03-21T09:43:29.495Z,37.90
2019-03-21T09:46:01.820Z,37.30
2019-03-21T09:48:34.803Z,39.70
2019-03-21T09:51:07.329Z,37.90
2019-03-21T09:53:39.990Z,38.60
2019-03-21T09:56:12.407Z,39.20
2019-03-21T09:58:44.812Z,39.70
2019-03-21T10:01:17.301Z,40.50
2019-03-21T10:03:51.078Z,40.70
2019-03-21T10:06:23.493Z,41.20
2019-03-21T10:08:56.548Z,42.00
2019-03-21T10:11:29.157Z,40.10
2019-03-21T10:14:01.456Z,40.40
2019-03-21T10:16:34.083Z,39.70
2019-03-21T10:19:06.897Z,40.10
2019-03-21T10:21:43.685Z,39.80
2019-03-21T10:24:13.337Z,40.20
2019-03-21T10:26:45.808Z,41.50
2019-03-21T10:29:18.350Z,40.80
2019-03-21T10:31:51.145Z,41.30
2019-03-21T10:34:23.758Z,42.60
2019-03-21T10:36:56.451Z,44.80
2019-03-21T10:39:29.162Z,42.20
2019-03-21T10:42:01.747Z,43.40
2019-03-21T10:44:34.289Z,46.00
2019-03-21T10:47:06.926Z,48.70
2019-03-21T10:49:39.522Z,45.70
2019-03-21T10:52:11.963Z,48.80
2019-03-21T10:54:44.304Z,47.20
2019-03-21T10:57:17.124Z,47.80
2019-03-21T10:59:49.830Z,48.00
2019-03-21T11:02:22.671Z,48.00
2019-03-21T11:04:55.294Z,47.90
2019-03-21T11:07:26.884Z,50.00
2019-03-21T11:09:59.363Z,49.70
2019-03-21T11:12:31.871Z,48.30
2019-03-21T11:15:04.359Z,49.10
2019-03-21T11:17:36.784Z,48.80
2019-03-21T11:20:09.228Z,51.10
2019-03-21T11:22:41.595Z,49.80
2019-03-21T11:25:14.401Z,51.60
2019-03-21T11:27:46.683Z,51.10
2019-03-21T11:30:21.782Z,52.60
2019-03-21T11:32:55.956Z,51.70
2019-03-21T11:35:28.558Z,53.80
2019-03-21T11:38:00.962Z,54.70
2019-03-21T11:40:33.779Z,56.20
2019-03-21T11:43:07.736Z,55.20
2019-03-21T11:45:40.541Z,54.10
2019-03-21T11:48:14.573Z,54.10
2019-03-21T11:50:46.981Z,53.80
2019-03-21T11:53:19.627Z,54.50
2019-03-21T11:55:52.229Z,54.50
2019-03-21T11:58:24.983Z,53.50
2019-03-21T12:00:57.505Z,53.20
2019-03-21T12:03:30.045Z,53.90
2019-03-21T12:06:02.215Z,53.50
2019-03-21T12:08:39.522Z,55.20
2019-03-21T12:11:14.358Z,55.60
2019-03-21T12:13:46.614Z,57.10
2019-03-21T12:16:19.518Z,57.40
2019-03-21T12:18:51.951Z,58.70
2019-03-21T12:21:24.575Z,57.80
2019-03-21T12:23:56.933Z,56.50
2019-03-21T12:26:29.372Z,57.10
2019-03-21T12:29:01.571Z,56.50
2019-03-21T12:31:34.177Z,57.40
2019-03-21T12:34:06.533Z,57.20
2019-03-21T12:36:43.856Z,57.60
2019-03-21T12:39:17.208Z,57.20
2019-03-21T12:41:51.754Z,57.40
2019-03-21T12:44:24.493Z,57.60
2019-03-21T12:46:56.671Z,57.60
2019-03-21T12:49:42.491Z,58.30
2019-03-21T12:52:17.361Z,57.50
2019-03-21T12:54:49.847Z,57.40
2019-03-21T12:57:22.498Z,56.50
2019-03-21T12:59:56.027Z,56.90
2019-03-21T13:02:32.340Z,57.20
2019-03-21T13:05:16.391Z,57.40
2019-03-21T13:07:49.130Z,57.20
2019-03-21T13:10:21.551Z,56.90
2019-03-21T13:12:54.551Z,57.10
2019-03-21T13:15:30.665Z,57.20
2019-03-21T13:18:04.738Z,57.50
2019-03-21T13:20:37.107Z,58.70
2019-03-21T13:23:09.676Z,57.70
2019-03-21T13:25:41.957Z,57.70
2019-03-21T13:28:15.314Z,58.20
2019-03-21T13:30:49.129Z,59.80
2019-03-21T13:33:21.742Z,58.10
2019-03-21T13:35:54.592Z,58.60
2019-03-21T13:38:27.114Z,59.70
2019-03-21T13:40:59.611Z,60.10
2019-03-21T13:43:33.054Z,61.10
2019-03-21T13:46:05.716Z,61.70
2019-03-21T13:48:38.096Z,62.50
2019-03-21T13:51:10.597Z,60.60
2019-03-21T13:53:43.141Z,61.70
2019-03-21T13:56:15.474Z,62.60
2019-03-21T13:58:49.264Z,61.90
2019-03-21T14:01:21.500Z,60.50
2019-03-21T14:03:54.584Z,61.20
2019-03-21T14:06:27.487Z,62.00
2019-03-21T14:08:59.718Z,62.60
2019-03-21T14:11:31.982Z,62.50
2019-03-21T14:14:04.136Z,61.60
2019-03-21T14:16:41.465Z,62.00
2019-03-21T14:19:14.045Z,62.10
2019-03-21T14:21:46.500Z,61.90
2019-03-21T14:24:19.328Z,62.20
2019-03-21T14:26:52.035Z,61.90
2019-03-21T14:29:24.647Z,62.10
2019-03-21T14:31:57.104Z,62.10
2019-03-21T14:34:29.495Z,62.10
2019-03-21T14:37:02.066Z,62.30
2019-03-21T14:39:35.173Z,62.20
2019-03-21T14:42:07.448Z,62.80
2019-03-21T14:44:40.042Z,62.70
2019-03-21T14:47:12.327Z,63.20
2019-03-21T14:49:45.496Z,62.90
2019-03-21T14:52:17.926Z,63.10
2019-03-21T14:54:50.435Z,63.40
2019-03-21T14:57:22.889Z,63.70
2019-03-21T14:59:55.745Z,64.00
2019-03-21T15:02:28.225Z,64.20
2019-03-21T15:05:00.791Z,63.90
2019-03-21T15:07:33.466Z,64.90
2019-03-21T15:10:08.429Z,65.00
2019-03-21T15:12:41.647Z,65.40
2019-03-21T15:15:16.488Z,65.90
2019-03-21T15:17:48.999Z,67.20
2019-03-21T15:20:21.403Z,66.40
2019-03-21T15:22:53.634Z,66.70
2019-03-21T15:25:26.205Z,68.30
2019-03-21T15:27:58.489Z,67.20
2019-03-21T15:30:31.303Z,67.30
2019-03-21T15:33:03.734Z,67.90
2019-03-21T15:35:36.561Z,67.30
2019-03-21T15:38:08.774Z,67.60
2019-03-21T15:40:41.156Z,67.50
2019-03-21T15:43:13.733Z,67.90
2019-03-21T15:45:46.221Z,67.60
2019-03-21T15:48:20.827Z,67.50
2019-03-21T15:51:03.550Z,68.00
2019-03-21T15:53:26.357Z,68.80
2019-03-21T15:55:59.037Z,67.30
2019-03-21T15:58:44.661Z,66.70
2019-03-21T16:01:16.949Z,66.60
2019-03-21T16:03:49.170Z,65.90
2019-03-21T16:06:21.872Z,64.80
2019-03-21T16:08:54.502Z,64.40
2019-03-21T16:11:27.967Z,64.50
2019-03-21T16:14:00.269Z,64.10
2019-03-21T16:16:32.636Z,64.20
2019-03-21T16:19:04.946Z,63.30
2019-03-21T16:21:37.305Z,63.60
2019-03-21T16:24:21.625Z,64.30
2019-03-21T16:26:53.948Z,64.20
2019-03-21T16:29:26.729Z,64.10
2019-03-21T16:31:59.568Z,64.10
2019-03-21T16:34:33.242Z,63.80
2019-03-21T16:37:06.607Z,64.20
2019-03-21T16:39:39.171Z,64.30
2019-03-21T16:42:11.363Z,64.20
2019-03-21T16:44:44.223Z,64.70
2019-03-21T16:47:16.428Z,64.80
2019-03-21T16:49:49.074Z,65.20
2019-03-21T16:52:21.531Z,65.40
2019-03-21T16:54:53.885Z,66.00
2019-03-21T16:57:26.439Z,65.40
2019-03-21T16:59:58.838Z,66.30
2019-03-21T17:02:31.406Z,67.10
2019-03-21T17:05:04.197Z,65.90
2019-03-21T17:07:36.734Z,66.10
2019-03-21T17:10:11.213Z,66.80
2019-03-21T17:12:44.653Z,68.10
2019-03-21T17:15:18.202Z,68.90
2019-03-21T17:17:50.635Z,70.20
2019-03-21T17:20:23.635Z,70.60
2019-03-21T17:22:56.509Z,70.20
2019-03-21T17:25:31.145Z,69.80
2019-03-21T17:28:03.042Z,70.00
2019-03-21T17:30:35.621Z,70.70
2019-03-21T17:33:08.299Z,72.00
2019-03-21T17:35:40.857Z,73.60
2019-03-21T17:38:13.270Z,75.50
2019-03-21T17:40:46.206Z,76.60
2019-03-21T17:43:18.552Z,77.00
2019-03-21T17:45:51.284Z,77.70
2019-03-21T17:48:23.610Z,78.50
2019-03-21T17:50:56.290Z,77.40
2019-03-21T17:53:28.755Z,77.30
2019-03-21T17:56:01.316Z,77.00
2019-03-21T17:58:33.692Z,77.60
2019-03-21T18:01:06.669Z,77.30
2019-03-21T18:03:39.311Z,78.20
2019-03-21T18:06:11.997Z,78.20
2019-03-21T18:08:44.605Z,79.50
2019-03-21T18:11:17.550Z,79.20
2019-03-21T18:13:50.236Z,80.10
2019-03-21T18:16:22.889Z,79.30
2019-03-21T18:18:55.506Z,79.20
2019-03-21T18:21:28.078Z,78.20
2019-03-21T18:24:00.452Z,78.90
2019-03-21T18:26:33.363Z,79.90
2019-03-21T18:29:06.384Z,81.00
2019-03-21T18:31:39.205Z,81.30
2019-03-21T18:34:11.925Z,81.40
2019-03-21T18:36:44.577Z,80.80
2019-03-21T18:39:17.378Z,80.40
2019-03-21T18:41:50.396Z,81.70
2019-03-21T18:44:22.790Z,81.50
2019-03-21T18:46:55.570Z,81.60
2019-03-21T18:49:28.526Z,82.10
2019-03-21T18:52:00.866Z,81.10
2019-03-21T18:54:34.271Z,81.70
2019-03-21T18:57:07.165Z,80.90
2019-03-21T18:59:39.746Z,82.00
2019-03-21T19:02:13.037Z,81.70
2019-03-21T19:04:45.638Z,81.10
2019-03-21T19:07:18.371Z,82.70
2019-03-21T19:09:50.785Z,82.50
2019-03-21T19:12:23.912Z,82.90
2019-03-21T19:14:56.545Z,84.70
2019-03-21T19:17:29.111Z,85.70
2019-03-21T19:20:01.417Z,86.00
2019-03-21T19:22:34.046Z,87.90
2019-03-21T19:25:17.950Z,85.60
2019-03-21T19:27:42.288Z,85.40
2019-03-21T19:30:16.923Z,84.60
2019-03-21T19:32:51.035Z,85.00
2019-03-21T19:35:23.976Z,85.50
2019-03-21T19:37:56.485Z,85.50
2019-03-21T19:40:29.119Z,87.20
2019-03-21T19:43:01.533Z,87.90
2019-03-21T19:45:33.950Z,88.40
2019-03-21T19:48:06.502Z,86.10
2019-03-21T19:50:39.009Z,85.30
2019-03-21T19:53:11.542Z,85.50
2019-03-21T19:55:43.896Z,87.10
2019-03-21T19:58:16.749Z,86.50
2019-03-21T20:00:49.444Z,86.10
2019-03-21T20:03:22.713Z,86.40
2019-03-21T20:06:00.116Z,85.60
2019-03-21T20:08:29.056Z,84.60
2019-03-21T20:11:02.458Z,84.10
2019-03-21T20:13:35.194Z,85.10
2019-03-21T20:16:07.597Z,84.70
2019-03-21T20:18:40.135Z,82.40
2019-03-21T20:21:13.821Z,82.10
2019-03-21T20:23:46.538Z,82.70
2019-03-21T20:26:19.247Z,82.60
2019-03-21T20:28:51.939Z,84.20
2019-03-21T20:31:24.999Z,84.90
2019-03-21T20:33:57.788Z,83.90
2019-03-21T20:36:30.321Z,82.90
2019-03-21T20:39:03.129Z,82.40
2019-03-21T20:41:36.154Z,83.00
2019-03-21T20:44:15.052Z,82.80
2019-03-21T20:46:42.857Z,83.80
2019-03-21T20:49:15.391Z,84.60
2019-03-21T20:51:47.780Z,86.80
2019-03-21T20:54:20.539Z,85.10
2019-03-21T20:56:53.065Z,86.90
2019-03-21T20:59:25.518Z,85.20
2019-03-21T21:02:02.546Z,84.70
2019-03-21T21:04:32.103Z,84.70
2019-03-21T21:07:04.269Z,84.60
2019-03-21T21:09:37.048Z,84.80
2019-03-21T21:12:09.487Z,87.00
2019-03-21T21:14:42.357Z,86.80
2019-03-21T21:17:14.778Z,87.00
2019-03-21T21:19:47.263Z,87.30
2019-03-21T21:22:20.051Z,87.60
2019-03-21T21:24:53.353Z,85.80
2019-03-21T21:27:26.199Z,85.10
2019-03-21T21:29:58.770Z,85.40
2019-03-21T21:32:31.144Z,85.30
2019-03-21T21:35:03.390Z,86.40
2019-03-21T21:37:35.762Z,85.70
2019-03-21T21:40:09.739Z,85.70
2019-03-21T21:42:42.238Z,86.30
2019-03-21T21:45:17.963Z,86.60
2019-03-21T21:47:50.414Z,86.30
2019-03-21T21:50:23.099Z,86.90
2019-03-21T21:52:55.544Z,86.90
2019-03-21T21:55:28.308Z,87.20
2019-03-21T21:58:00.792Z,87.20
2019-03-21T22:00:33.481Z,87.40
2019-03-21T22:03:05.794Z,87.80
2019-03-21T22:05:38.575Z,88.20
2019-03-21T22:08:10.903Z,88.10
2019-03-21T22:10:43.471Z,88.50
2019-03-21T22:13:15.950Z,88.90
2019-03-21T22:15:48.503Z,88.70
2019-03-21T22:18:20.853Z,89.50
2019-03-21T22:20:54.245Z,88.80
2019-03-21T22:23:26.829Z,90.00
2019-03-21T22:25:59.400Z,90.10
2019-03-21T22:28:31.793Z,90.10
2019-03-21T22:31:04.532Z,90.60
2019-03-21T22:33:36.889Z,90.20
2019-03-21T22:36:09.511Z,90.60
2019-03-21T22:38:42.111Z,90.20
2019-03-21T22:41:14.668Z,90.20
2019-03-21T22:43:47.236Z,91.00
2019-03-21T22:46:19.843Z,91.00
2019-03-21T22:48:52.243Z,91.00
2019-03-21T22:51:24.793Z,90.90
2019-03-21T22:53:57.390Z,91.10
2019-03-21T22:56:40.538Z,90.70
2019-03-21T22:59:03.560Z,91.10
2019-03-21T23:01:36.323Z,91.20
2019-03-21T23:04:08.794Z,91.30
2019-03-21T23:06:41.595Z,91.10
2019-03-21T23:09:14.085Z,90.80
2019-03-21T23:11:46.544Z,91.00
2019-03-21T23:14:19.604Z,91.00
2019-03-21T23:16:52.141Z,91.20
2019-03-21T23:19:24.527Z,91.50
2019-03-21T23:21:57.040Z,91.50
2019-03-21T23:24:29.624Z,92.00
2019-03-21T23:27:02.271Z,91.50
2019-03-21T23:29:34.773Z,92.10
2019-03-21T23:32:07.716Z,91.80
2019-03-21T23:34:40.105Z,91.30
2019-03-21T23:37:12.888Z,91.30
2019-03-21T23:39:45.330Z,91.60
2019-03-21T23:42:18.166Z,91.80
2019-03-21T23:44:50.884Z,91.80
2019-03-21T23:47:23.770Z,91.50
2019-03-21T23:49:56.052Z,91.80
2019-03-21T23:52:28.578Z,91.90
2019-03-21T23:55:01.216Z,91.90
2019-03-21T23:57:33.840Z,91.40
